Time;durP1;ratioP1;P1;durP2;ratioP2;P2;SDS_P1;SDS_P2;PMS_P1;PMS_P2;Temp;Humidity;BMP_temperature;BMP_pressure;BME280_temperature;BME280_humidity;BME280_pressure;Samples;Min_cycle;Max_cycle;Signal;HPM_P1;HPM_P2
2023/03/16 00:01:17;;;;;;;16.20;7.97;;;-0.20;99.90;;;;;;5035758;28;20501;-73
2023/03/16 00:03:43;;;;;;;13.77;8.53;;;-0.20;99.90;;;;;;5039537;28;20551;-72
2023/03/16 00:06:10;;;;;;;19.37;8.87;;;-0.30;99.90;;;;;;5033862;28;20450;-72
2023/03/16 00:08:38;;;;;;;14.83;8.70;;;-0.30;99.90;;;;;;5034045;28;20458;-72
2023/03/16 00:11:05;;;;;;;19.40;8.20;;;-0.30;99.90;;;;;;5034557;28;20470;-72
2023/03/16 00:13:32;;;;;;;17.33;8.40;;;-0.30;99.90;;;;;;5040960;28;20459;-72
2023/03/16 00:16:03;;;;;;;19.10;8.77;;;-0.40;99.90;;;;;;5034042;28;20452;-72
2023/03/16 00:18:37;;;;;;;21.10;9.00;;;-0.30;99.90;;;;;;5035731;28;20485;-72
2023/03/16 00:21:05;;;;;;;16.23;8.60;;;-0.40;99.90;;;;;;5036161;28;20457;-72
2023/03/16 00:23:34;;;;;;;15.27;8.40;;;-0.50;99.90;;;;;;5033579;28;21064;-72
2023/03/16 00:26:03;;;;;;;13.70;8.40;;;-0.50;99.90;;;;;;5033710;28;20933;-72
2023/03/16 00:28:33;;;;;;;17.37;8.83;;;-0.40;99.90;;;;;;5033871;28;20462;-72
2023/03/16 00:31:02;;;;;;;22.40;8.70;;;-0.50;99.90;;;;;;5033844;28;20463;-72
2023/03/16 00:33:33;;;;;;;16.63;8.30;;;-0.60;99.90;;;;;;5033800;28;20477;-72
2023/03/16 00:36:03;;;;;;;13.90;8.70;;;-0.60;99.90;;;;;;5041605;28;20480;-72
2023/03/16 00:38:34;;;;;;;19.13;8.90;;;-0.60;99.90;;;;;;5033377;28;20455;-72
2023/03/16 00:41:02;;;;;;;16.60;9.17;;;-0.60;99.90;;;;;;5041553;28;20934;-71
2023/03/16 00:43:30;;;;;;;16.90;8.50;;;-0.60;99.90;;;;;;5033594;28;20490;-72
2023/03/16 00:46:05;;;;;;;13.40;8.17;;;-0.60;99.90;;;;;;5034331;28;20457;-72
2023/03/16 00:48:34;;;;;;;16.80;8.73;;;-0.60;99.90;;;;;;5033239;28;20931;-72
2023/03/16 00:51:01;;;;;;;14.40;8.00;;;-0.70;99.90;;;;;;5033266;28;20453;-72
2023/03/16 00:53:28;;;;;;;16.20;8.83;;;-0.70;99.90;;;;;;5033235;28;20822;-72
2023/03/16 00:55:55;;;;;;;14.77;8.70;;;-0.70;99.90;;;;;;5032842;28;20869;-71
2023/03/16 00:58:22;;;;;;;17.00;7.77;;;-0.80;99.90;;;;;;5036026;28;20450;-71
2023/03/16 01:00:50;;;;;;;11.03;7.90;;;-0.80;99.90;;;;;;5037612;28;20488;-72
2023/03/16 01:03:16;;;;;;;17.70;8.43;;;-0.80;99.90;;;;;;5040009;28;21025;-71
2023/03/16 01:05:44;;;;;;;16.00;8.40;;;-0.70;99.90;;;;;;5033086;28;20801;-71
2023/03/16 01:08:11;;;;;;;19.53;8.30;;;-0.80;99.90;;;;;;5049292;28;20934;-71
2023/03/16 01:10:39;;;;;;;13.33;7.57;;;-0.80;99.90;;;;;;5032912;28;20863;-72
2023/03/16 01:13:06;;;;;;;13.50;8.30;;;-0.80;99.90;;;;;;5032641;28;20512;-71
2023/03/16 01:15:34;;;;;;;11.20;7.77;;;-0.90;99.90;;;;;;5040989;28;20553;-71
2023/03/16 01:18:01;;;;;;;17.37;8.83;;;-0.90;99.90;;;;;;5033010;28;20445;-71
2023/03/16 01:20:28;;;;;;;17.70;9.17;;;-0.90;99.90;;;;;;5044335;28;20514;-72
2023/03/16 01:22:56;;;;;;;14.30;8.20;;;-0.90;99.90;;;;;;5037249;28;21044;-71
2023/03/16 01:25:23;;;;;;;14.73;7.93;;;-0.80;99.90;;;;;;5032668;28;20500;-71
2023/03/16 01:27:49;;;;;;;11.00;8.17;;;-0.90;99.90;;;;;;5040497;28;20552;-71
2023/03/16 01:30:16;;;;;;;15.00;7.90;;;-0.90;99.90;;;;;;5032622;28;20462;-72
2023/03/16 01:32:43;;;;;;;20.00;8.57;;;-1.00;99.90;;;;;;5032444;28;20580;-71
2023/03/16 01:35:10;;;;;;;20.53;8.90;;;-1.00;99.90;;;;;;5032147;28;20486;-71
2023/03/16 01:37:37;;;;;;;14.80;8.20;;;-1.00;99.90;;;;;;5040605;28;20464;-71
2023/03/16 01:40:07;;;;;;;18.30;8.43;;;-1.10;99.90;;;;;;5032263;28;20873;-71
2023/03/16 01:42:44;;;;;;;19.10;9.73;;;-1.10;99.90;;;;;;5031733;28;20466;-71
2023/03/16 01:45:43;;;;;;;13.87;7.93;;;-1.10;99.90;;;;;;5033597;28;20869;-71
2023/03/16 01:48:10;;;;;;;18.50;8.70;;;-1.10;99.90;;;;;;5031818;28;20446;-71
2023/03/16 01:50:37;;;;;;;16.43;8.47;;;-1.10;99.90;;;;;;5032282;28;20448;-71
2023/03/16 01:53:03;;;;;;;13.70;8.10;;;-1.10;99.90;;;;;;5032390;28;20454;-71
2023/03/16 01:55:31;;;;;;;17.27;9.00;;;-1.10;99.90;;;;;;5039844;28;20467;-71
2023/03/16 01:57:58;;;;;;;14.87;8.53;;;-1.20;99.90;;;;;;5032136;28;20508;-71
2023/03/16 02:00:30;;;;;;;15.40;8.83;;;-1.20;99.90;;;;;;5032051;28;21078;-71
2023/03/16 02:03:04;;;;;;;13.30;8.40;;;-1.20;99.90;;;;;;5039665;28;20506;-71
2023/03/16 02:05:35;;;;;;;17.23;9.37;;;-1.30;99.90;;;;;;5031928;28;20887;-71
2023/03/16 02:08:03;;;;;;;14.50;7.83;;;-1.30;99.90;;;;;;5031993;28;20450;-71
2023/03/16 02:10:33;;;;;;;13.40;8.40;;;-1.30;99.90;;;;;;5031641;28;20457;-71
2023/03/16 02:13:00;;;;;;;14.57;8.60;;;-1.20;99.90;;;;;;5031217;28;20941;-70
2023/03/16 02:15:27;;;;;;;16.70;8.77;;;-1.20;99.90;;;;;;5031452;28;20466;-71
2023/03/16 02:17:53;;;;;;;11.80;7.60;;;-1.30;99.90;;;;;;5031807;28;20493;-70
2023/03/16 02:20:32;;;;;;;19.37;7.60;;;-1.30;99.90;;;;;;5039766;28;21007;-71
2023/03/16 02:22:59;;;;;;;18.07;8.83;;;-1.30;99.90;;;;;;5036084;28;20489;-71
2023/03/16 02:25:32;;;;;;;16.43;8.20;;;-1.30;99.90;;;;;;5031449;28;20474;-71
2023/03/16 02:28:08;;;;;;;16.03;8.40;;;-1.30;99.90;;;;;;5031325;28;20512;-71
2023/03/16 02:30:36;;;;;;;17.53;9.50;;;-1.40;99.90;;;;;;5031460;28;20449;-71
2023/03/16 02:33:04;;;;;;;19.90;9.10;;;-1.40;99.90;;;;;;5031584;28;20442;-71
2023/03/16 02:35:31;;;;;;;14.50;8.13;;;-1.40;99.90;;;;;;5031370;28;20970;-71
2023/03/16 02:37:58;;;;;;;14.60;8.47;;;-1.40;99.90;;;;;;5031509;28;20454;-71
2023/03/16 02:40:27;;;;;;;18.80;8.33;;;-1.50;99.90;;;;;;5041854;28;20449;-70
2023/03/16 02:43:01;;;;;;;19.83;8.67;;;-1.50;99.90;;;;;;5036461;28;20454;-70
2023/03/16 02:45:32;;;;;;;13.03;8.33;;;-1.50;99.90;;;;;;5032649;28;21004;-70
2023/03/16 02:48:02;;;;;;;13.23;8.40;;;-1.60;99.90;;;;;;5031467;28;20464;-71
2023/03/16 02:50:29;;;;;;;13.87;8.00;;;-1.60;99.90;;;;;;5031128;28;20556;-71
2023/03/16 02:52:55;;;;;;;22.23;9.17;;;-1.60;99.90;;;;;;5031156;28;20484;-71
2023/03/16 02:55:22;;;;;;;14.47;8.20;;;-1.60;99.90;;;;;;5030601;28;20465;-71
2023/03/16 02:57:49;;;;;;;14.47;8.30;;;-1.70;99.90;;;;;;5031600;28;20565;-71
2023/03/16 03:00:17;;;;;;;20.80;8.63;;;-1.50;99.90;;;;;;5031021;28;20446;-71
2023/03/16 03:02:44;;;;;;;18.00;9.20;;;-1.60;99.90;;;;;;5044281;28;20464;-71
2023/03/16 03:05:12;;;;;;;15.57;9.00;;;-1.70;99.90;;;;;;5042386;28;20512;-71
2023/03/16 03:07:39;;;;;;;21.37;9.57;;;-1.60;99.90;;;;;;5038466;28;20528;-71
2023/03/16 03:10:06;;;;;;;15.97;9.13;;;-1.60;99.90;;;;;;5031013;28;20469;-70
2023/03/16 03:12:33;;;;;;;16.83;8.60;;;-1.60;99.90;;;;;;5031287;28;20529;-71
2023/03/16 03:15:00;;;;;;;17.67;8.97;;;-1.60;99.90;;;;;;5031013;28;20880;-71
2023/03/16 03:17:28;;;;;;;12.07;7.73;;;-1.60;99.90;;;;;;5030752;28;20476;-70
2023/03/16 03:19:56;;;;;;;19.40;9.00;;;-1.60;99.90;;;;;;5037659;28;20516;-71
2023/03/16 03:22:25;;;;;;;21.47;8.63;;;-1.60;99.90;;;;;;5031242;28;20454;-70
2023/03/16 03:24:52;;;;;;;15.03;8.33;;;-1.60;99.90;;;;;;5034599;28;20498;-70
2023/03/16 03:27:19;;;;;;;14.13;7.60;;;-1.60;99.90;;;;;;5034508;28;20500;-70
2023/03/16 03:29:46;;;;;;;14.20;8.90;;;-1.60;99.90;;;;;;5034269;28;20446;-71
2023/03/16 03:32:13;;;;;;;15.77;8.17;;;-1.70;99.90;;;;;;5034398;28;20454;-70
2023/03/16 03:34:41;;;;;;;16.37;8.90;;;-1.70;99.90;;;;;;5034587;28;20465;-70
2023/03/16 03:37:08;;;;;;;14.13;8.53;;;-1.70;99.90;;;;;;5034751;28;20465;-72
2023/03/16 03:39:35;;;;;;;15.77;9.10;;;-1.80;99.90;;;;;;5034362;28;20988;-70
2023/03/16 03:42:02;;;;;;;12.70;8.63;;;-1.80;99.90;;;;;;5034591;28;20453;-70
2023/03/16 03:44:31;;;;;;;16.10;8.93;;;-1.70;99.90;;;;;;5033994;28;20497;-70
2023/03/16 03:46:58;;;;;;;17.50;8.93;;;-1.80;99.90;;;;;;5036816;28;20472;-71
2023/03/16 03:49:24;;;;;;;15.60;10.20;;;-1.80;99.90;;;;;;5034360;28;20453;-70
2023/03/16 03:51:51;;;;;;;20.27;10.00;;;-1.80;99.90;;;;;;5034316;28;20458;-70
2023/03/16 03:54:18;;;;;;;16.80;9.07;;;-1.70;99.90;;;;;;5033950;28;20462;-71
2023/03/16 03:56:46;;;;;;;16.63;9.10;;;-1.80;99.90;;;;;;5033963;28;20860;-70
2023/03/16 03:59:12;;;;;;;16.50;8.97;;;-1.80;99.90;;;;;;5034231;28;20441;-71
2023/03/16 04:01:39;;;;;;;15.60;8.77;;;-1.80;99.90;;;;;;5034263;28;20488;-71
2023/03/16 04:04:06;;;;;;;17.57;8.73;;;-1.90;99.90;;;;;;5041982;28;20493;-70
2023/03/16 04:06:32;;;;;;;12.83;7.80;;;-1.80;99.90;;;;;;5034205;28;20500;-71
2023/03/16 04:08:59;;;;;;;15.03;8.43;;;-1.80;99.90;;;;;;5033919;28;20953;-71
2023/03/16 04:11:25;;;;;;;14.90;8.37;;;-1.90;99.90;;;;;;5033767;28;20446;-70
2023/03/16 04:13:53;;;;;;;16.70;8.63;;;-1.90;99.90;;;;;;5034135;28;20466;-70
2023/03/16 04:16:20;;;;;;;12.07;7.67;;;-1.90;99.90;;;;;;5033928;28;20799;-70
2023/03/16 04:18:47;;;;;;;18.90;8.03;;;-1.90;99.90;;;;;;5046130;28;20453;-70
2023/03/16 04:21:16;;;;;;;17.37;8.87;;;-1.90;99.90;;;;;;5036410;28;20454;-70
2023/03/16 04:23:43;;;;;;;17.53;9.37;;;-2.00;99.90;;;;;;5033472;28;20577;-70
2023/03/16 04:26:10;;;;;;;15.00;8.37;;;-2.00;99.90;;;;;;5033762;28;21033;-70
2023/03/16 04:28:37;;;;;;;13.40;8.10;;;-2.00;99.90;;;;;;5042157;28;20919;-71
2023/03/16 04:31:07;;;;;;;15.27;8.30;;;-1.90;99.90;;;;;;5033767;28;20495;-70
2023/03/16 04:33:33;;;;;;;16.27;8.90;;;-2.00;99.90;;;;;;5036685;28;20442;-70
2023/03/16 04:36:01;;;;;;;13.83;8.80;;;-2.00;99.90;;;;;;5037504;28;20442;-71
2023/03/16 04:38:27;;;;;;;14.70;9.30;;;-2.00;99.90;;;;;;5033294;28;20476;-71
2023/03/16 04:40:54;;;;;;;18.13;9.73;;;-2.00;99.90;;;;;;5033445;28;20454;-70
2023/03/16 04:43:21;;;;;;;12.83;8.80;;;-2.00;99.90;;;;;;5033292;28;20503;-70
2023/03/16 04:45:49;;;;;;;14.63;8.03;;;-2.00;99.90;;;;;;5035880;28;20520;-71
2023/03/16 04:48:17;;;;;;;14.50;8.63;;;-2.00;99.90;;;;;;5033246;28;20464;-71
2023/03/16 04:50:44;;;;;;;23.80;8.90;;;-2.00;99.90;;;;;;5032801;28;20450;-71
2023/03/16 04:53:10;;;;;;;18.00;9.07;;;-2.00;99.90;;;;;;5033321;28;20942;-70
2023/03/16 04:55:37;;;;;;;15.07;7.90;;;-2.10;99.90;;;;;;5032785;28;20525;-71
2023/03/16 04:58:04;;;;;;;13.27;8.00;;;-2.10;99.90;;;;;;5033284;28;20528;-71
2023/03/16 05:00:30;;;;;;;12.93;7.77;;;-2.10;99.90;;;;;;5032710;28;20939;-71
2023/03/16 05:02:57;;;;;;;13.03;7.80;;;-2.20;99.90;;;;;;5033856;28;21021;-71
2023/03/16 05:05:25;;;;;;;15.30;8.50;;;-2.10;99.90;;;;;;5032949;28;20543;-71
2023/03/16 05:07:52;;;;;;;21.47;10.07;;;-2.20;99.90;;;;;;5033094;28;20454;-71
2023/03/16 05:10:19;;;;;;;18.73;9.43;;;-2.20;99.90;;;;;;5032639;28;20815;-72
2023/03/16 05:12:45;;;;;;;14.50;8.03;;;-2.20;99.90;;;;;;5032724;28;20463;-71
2023/03/16 05:15:12;;;;;;;11.47;7.57;;;-2.20;99.90;;;;;;5032553;28;20497;-71
2023/03/16 05:17:40;;;;;;;12.93;7.60;;;-2.10;99.90;;;;;;5033287;28;20490;-70
2023/03/16 05:20:11;;;;;;;22.43;7.93;;;-2.10;99.90;;;;;;5040254;28;20523;-70
2023/03/16 05:22:40;;;;;;;14.03;8.53;;;-2.10;99.90;;;;;;5032742;28;20445;-70
2023/03/16 05:25:08;;;;;;;12.20;7.37;;;-2.10;99.90;;;;;;5032422;28;20718;-70
2023/03/16 05:27:34;;;;;;;24.87;9.03;;;-2.10;99.90;;;;;;5035526;28;20537;-71
2023/03/16 05:30:01;;;;;;;15.93;8.00;;;-2.20;99.90;;;;;;5045608;28;20825;-71
2023/03/16 05:32:27;;;;;;;14.87;8.23;;;-2.20;99.90;;;;;;5032168;28;20450;-70
2023/03/16 05:34:54;;;;;;;16.63;8.80;;;-2.20;99.90;;;;;;5032153;28;20470;-70
2023/03/16 05:37:21;;;;;;;17.80;8.60;;;-2.20;99.90;;;;;;5033077;28;20932;-70
2023/03/16 05:39:49;;;;;;;15.65;9.00;;;-2.20;99.90;;;;;;5043567;28;20451;-73
2023/03/16 05:42:15;;;;;;;15.00;9.37;;;-2.20;99.90;;;;;;5036084;28;20203;-73
2023/03/16 05:44:43;;;;;;;15.20;8.73;;;-2.20;99.90;;;;;;5032937;28;20531;-73
2023/03/16 05:47:10;;;;;;;12.37;7.53;;;-2.10;99.90;;;;;;5034601;28;20968;-73
2023/03/16 05:49:36;;;;;;;16.53;9.10;;;-2.10;99.90;;;;;;5041039;28;20842;-74
2023/03/16 05:52:04;;;;;;;11.67;7.90;;;-2.10;99.90;;;;;;5032781;28;20480;-73
2023/03/16 05:54:30;;;;;;;13.97;7.87;;;-2.00;99.90;;;;;;5032994;28;20466;-73
2023/03/16 05:56:58;;;;;;;15.63;9.00;;;-2.00;99.90;;;;;;5033114;28;20454;-75
2023/03/16 05:59:25;;;;;;;15.00;8.17;;;-1.80;99.90;;;;;;5049589;28;20453;-75
2023/03/16 06:01:51;;;;;;;19.50;9.23;;;-1.70;99.90;;;;;;5039990;28;20457;-76
2023/03/16 06:04:18;;;;;;;16.60;9.77;;;-1.60;99.90;;;;;;4992718;28;20485;-74
2023/03/16 06:06:45;;;;;;;19.60;8.40;;;-1.40;99.90;;;;;;5012604;28;21022;-74
2023/03/16 06:09:11;;;;;;;14.53;7.80;;;-1.30;99.90;;;;;;5013749;28;20908;-75
2023/03/16 06:11:38;;;;;;;15.20;8.10;;;-1.10;99.90;;;;;;5014016;28;20451;-75
2023/03/16 06:14:06;;;;;;;13.80;8.20;;;-1.00;99.90;;;;;;5013269;28;20521;-75
2023/03/16 06:16:32;;;;;;;14.93;8.53;;;-1.00;99.90;;;;;;5012876;28;20454;-75
2023/03/16 06:18:59;;;;;;;15.00;8.27;;;-0.80;99.90;;;;;;5019225;28;20450;-75
2023/03/16 06:21:26;;;;;;;16.40;8.50;;;-0.40;99.90;;;;;;5014620;28;20545;-75
2023/03/16 06:23:53;;;;;;;13.37;7.90;;;-0.10;99.90;;;;;;5013261;28;20517;-75
2023/03/16 06:26:20;;;;;;;15.30;8.50;;;0.30;99.90;;;;;;5012748;28;20457;-75
2023/03/16 06:28:47;;;;;;;12.23;8.40;;;0.70;99.90;;;;;;5012639;28;20503;-75
2023/03/16 06:31:15;;;;;;;17.83;8.53;;;1.10;99.90;;;;;;5012959;28;20460;-76
2023/03/16 06:33:42;;;;;;;13.47;8.17;;;1.70;99.90;;;;;;5014213;28;20975;-75
2023/03/16 06:36:09;;;;;;;19.00;8.00;;;2.10;99.90;;;;;;5012590;28;20497;-75
2023/03/16 06:38:35;;;;;;;15.83;8.20;;;2.30;99.90;;;;;;5013119;28;20463;-75
2023/03/16 06:41:02;;;;;;;13.60;7.50;;;2.30;99.90;;;;;;5013152;28;20528;-75
2023/03/16 06:43:28;;;;;;;21.30;9.07;;;2.50;99.90;;;;;;5012916;28;20465;-75
2023/03/16 06:45:55;;;;;;;18.60;8.47;;;2.50;99.90;;;;;;5016730;28;20490;-75
2023/03/16 06:48:23;;;;;;;21.73;8.50;;;2.90;99.90;;;;;;5013027;28;20455;-75
2023/03/16 06:50:50;;;;;;;13.00;8.03;;;3.30;99.90;;;;;;5012749;28;20858;-75
2023/03/16 06:53:16;;;;;;;17.23;7.60;;;3.80;99.90;;;;;;5012361;28;21038;-75
2023/03/16 06:55:43;;;;;;;14.97;6.83;;;4.20;99.90;;;;;;5013373;28;20504;-75
2023/03/16 06:58:10;;;;;;;9.13;6.03;;;4.70;99.90;;;;;;5014743;28;20447;-75
2023/03/16 07:00:37;;;;;;;14.93;7.67;;;5.00;99.90;;;;;;5016685;28;20455;-75
2023/03/16 07:03:04;;;;;;;12.63;6.40;;;5.30;99.90;;;;;;5016395;28;20451;-75
2023/03/16 07:05:32;;;;;;;10.37;6.23;;;5.60;99.90;;;;;;5016344;28;20648;-75
2023/03/16 07:07:58;;;;;;;5.90;5.30;;;6.10;99.90;;;;;;5017431;28;20451;-75
2023/03/16 07:10:25;;;;;;;13.40;6.63;;;6.20;99.90;;;;;;5017643;28;20525;-75
2023/03/16 07:12:52;;;;;;;10.00;6.13;;;6.40;99.90;;;;;;5017125;28;20549;-75
2023/03/16 07:15:19;;;;;;;9.87;6.40;;;6.50;99.90;;;;;;5016663;28;20521;-75
2023/03/16 07:17:46;;;;;;;10.00;6.90;;;6.80;99.90;;;;;;5016522;28;20464;-74
2023/03/16 07:20:13;;;;;;;10.13;6.70;;;6.60;99.90;;;;;;5024465;28;20454;-75
2023/03/16 07:22:41;;;;;;;11.10;6.97;;;6.40;99.90;;;;;;5016471;28;20458;-74
2023/03/16 07:25:10;;;;;;;9.50;6.67;;;6.40;99.90;;;;;;5016542;28;20517;-75
2023/03/16 07:27:37;;;;;;;9.97;7.03;;;6.50;99.90;;;;;;5016113;28;20463;-74
2023/03/16 07:30:04;;;;;;;8.30;6.87;;;6.50;99.90;;;;;;5016631;28;20487;-74
2023/03/16 07:32:32;;;;;;;12.20;7.17;;;6.50;99.90;;;;;;5015934;28;20455;-74
2023/03/16 07:34:58;;;;;;;12.63;7.03;;;6.20;99.90;;;;;;5015499;28;20924;-74
2023/03/16 07:37:25;;;;;;;12.30;7.40;;;6.10;99.90;;;;;;5015695;28;20450;-74
2023/03/16 07:39:53;;;;;;;10.97;6.93;;;5.80;99.90;;;;;;5015977;28;20789;-74
2023/03/16 07:42:21;;;;;;;11.40;6.80;;;5.70;99.90;;;;;;5015328;28;20503;-75
2023/03/16 07:44:48;;;;;;;16.23;7.40;;;5.60;99.90;;;;;;5015527;28;20498;-75
2023/03/16 07:47:15;;;;;;;13.50;7.17;;;5.50;99.90;;;;;;5018844;28;20793;-74
2023/03/16 07:49:41;;;;;;;10.07;7.00;;;5.30;99.90;;;;;;5015012;28;20513;-74
2023/03/16 07:52:08;;;;;;;10.93;7.00;;;5.30;99.90;;;;;;5015284;28;20519;-74
2023/03/16 07:54:35;;;;;;;17.13;6.73;;;5.30;99.90;;;;;;5015649;28;20479;-74
2023/03/16 07:57:03;;;;;;;14.23;7.50;;;5.30;99.90;;;;;;5015428;28;20500;-74
2023/03/16 07:59:30;;;;;;;13.03;7.17;;;5.10;99.90;;;;;;5014688;28;20451;-74
2023/03/16 08:01:57;;;;;;;18.93;8.43;;;5.00;99.90;;;;;;5012850;28;20462;-75
2023/03/16 08:04:23;;;;;;;15.47;6.83;;;5.00;99.90;;;;;;5014758;28;20894;-74
2023/03/16 08:06:51;;;;;;;8.67;6.97;;;4.70;99.90;;;;;;5014942;28;20458;-74
2023/03/16 08:09:18;;;;;;;10.70;6.67;;;4.50;99.90;;;;;;5013410;28;20459;-74
2023/03/16 08:11:44;;;;;;;12.83;7.30;;;4.20;99.90;;;;;;5014338;28;20452;-74
2023/03/16 08:14:12;;;;;;;11.63;7.40;;;3.90;99.90;;;;;;5015156;28;20540;-76
2023/03/16 08:16:39;;;;;;;10.90;7.00;;;3.80;99.90;;;;;;5014959;28;20524;-74
2023/03/16 08:19:06;;;;;;;16.97;7.47;;;3.80;99.90;;;;;;5015176;28;20871;-75
2023/03/16 08:21:32;;;;;;;12.13;7.90;;;3.60;99.90;;;;;;5014720;28;20497;-75
2023/03/16 08:24:00;;;;;;;13.33;7.77;;;3.60;99.90;;;;;;5014887;28;20573;-74
2023/03/16 08:26:27;;;;;;;15.37;7.43;;;3.50;99.90;;;;;;5014605;28;20844;-75
2023/03/16 08:28:54;;;;;;;15.70;7.70;;;3.50;99.90;;;;;;5014353;28;20473;-74
2023/03/16 08:31:24;;;;;;;13.53;7.83;;;3.60;99.90;;;;;;5014570;28;20513;-74
2023/03/16 08:33:50;;;;;;;18.13;7.93;;;3.70;99.90;;;;;;5007077;28;20890;-75
2023/03/16 08:36:21;;;;;;;13.70;7.80;;;3.60;99.90;;;;;;5014460;28;20446;-74
2023/03/16 08:38:47;;;;;;;17.97;7.90;;;3.60;99.90;;;;;;5006599;28;20513;-74
2023/03/16 08:41:15;;;;;;;11.80;8.47;;;3.60;99.90;;;;;;5014813;28;20453;-74
2023/03/16 08:43:43;;;;;;;13.33;6.77;;;3.80;99.90;;;;;;5014188;28;20521;-74
2023/03/16 08:46:10;;;;;;;11.77;7.30;;;4.00;99.90;;;;;;5018400;28;20502;-74
2023/03/16 08:48:39;;;;;;;10.47;7.13;;;4.20;99.90;;;;;;5013935;28;20834;-74
2023/03/16 08:51:06;;;;;;;17.53;8.50;;;4.20;99.90;;;;;;5014400;28;20528;-74
2023/03/16 08:53:32;;;;;;;13.47;7.70;;;4.40;99.90;;;;;;5013822;28;21013;-74
2023/03/16 08:56:03;;;;;;;11.00;7.30;;;4.80;99.90;;;;;;5014549;28;20471;-74
2023/03/16 08:58:31;;;;;;;12.33;7.43;;;5.10;99.90;;;;;;5014114;28;20947;-74
2023/03/16 09:00:58;;;;;;;11.33;7.20;;;5.40;99.90;;;;;;5014083;28;20464;-75
2023/03/16 09:03:26;;;;;;;9.93;7.70;;;5.70;99.90;;;;;;5011237;28;20455;-75
2023/03/16 09:05:54;;;;;;;13.97;7.97;;;5.90;99.90;;;;;;5013984;28;20491;-75
2023/03/16 09:08:20;;;;;;;9.60;7.10;;;6.00;99.90;;;;;;5014009;28;20447;-75
2023/03/16 09:10:47;;;;;;;15.80;7.53;;;6.10;99.90;;;;;;5013743;28;20456;-74
2023/03/16 09:13:15;;;;;;;12.43;8.20;;;5.80;99.90;;;;;;5013942;28;20459;-74
2023/03/16 09:15:41;;;;;;;12.03;7.83;;;5.70;99.90;;;;;;5013766;28;20472;-74
2023/03/16 09:18:09;;;;;;;12.10;8.00;;;6.00;99.90;;;;;;5013596;28;20523;-75
2023/03/16 09:20:36;;;;;;;11.43;8.00;;;6.40;99.90;;;;;;5013715;28;20548;-74
2023/03/16 09:23:04;;;;;;;10.90;8.43;;;6.60;99.90;;;;;;5013719;28;20542;-76
2023/03/16 09:25:32;;;;;;;13.67;8.00;;;6.70;99.90;;;;;;5013614;28;20585;-75
2023/03/16 09:27:59;;;;;;;11.93;7.00;;;6.70;99.90;;;;;;5013904;28;20461;-74
2023/03/16 09:30:26;;;;;;;10.73;7.77;;;6.60;99.90;;;;;;5013374;28;20455;-74
2023/03/16 09:32:53;;;;;;;10.33;7.70;;;6.50;99.90;;;;;;5013442;28;20460;-77
2023/03/16 09:35:20;;;;;;;10.47;7.93;;;6.30;99.90;;;;;;5013277;28;20468;-74
2023/03/16 09:37:47;;;;;;;9.93;7.63;;;6.40;99.90;;;;;;5013689;28;20466;-74
2023/03/16 09:40:23;;;;;;;14.50;8.17;;;6.50;99.90;;;;;;5013371;28;20460;-74
2023/03/16 09:43:00;;;;;;;19.97;8.50;;;6.40;99.90;;;;;;5012908;28;20461;-75
2023/03/16 09:45:34;;;;;;;12.00;8.10;;;6.60;99.90;;;;;;5017693;28;20495;-75
2023/03/16 09:48:03;;;;;;;14.80;8.20;;;6.40;99.90;;;;;;5012802;28;20446;-76
2023/03/16 09:50:34;;;;;;;11.30;8.27;;;6.30;99.90;;;;;;5013257;28;20489;-74
2023/03/16 09:53:06;;;;;;;13.07;8.90;;;6.40;99.90;;;;;;5012843;28;20513;-75
2023/03/16 09:55:36;;;;;;;13.40;8.50;;;6.70;99.90;;;;;;5012165;28;20479;-74
2023/03/16 09:58:11;;;;;;;12.33;8.40;;;6.90;99.90;;;;;;5012790;28;20455;-75
2023/03/16 10:00:41;;;;;;;10.90;7.63;;;7.10;99.90;;;;;;5012555;28;20460;-74
2023/03/16 10:03:23;;;;;;;14.83;9.10;;;7.40;99.90;;;;;;5010021;28;20459;-74
2023/03/16 10:05:57;;;;;;;14.50;9.30;;;7.50;99.90;;;;;;5012222;28;20567;-75
2023/03/16 10:08:25;;;;;;;9.03;7.53;;;7.50;99.90;;;;;;5012452;28;20465;-75
2023/03/16 10:11:26;;;;;;;11.80;8.20;;;7.80;99.90;;;;;;5012271;28;20443;-75
2023/03/16 10:13:56;;;;;;;15.60;7.93;;;7.70;99.90;;;;;;4972718;28;20558;-74
2023/03/16 10:16:29;;;;;;;14.07;7.90;;;7.80;99.90;;;;;;5013308;28;20475;-75
2023/03/16 10:19:00;;;;;;;12.07;8.70;;;8.20;99.90;;;;;;5006046;28;21018;-75
2023/03/16 10:21:28;;;;;;;10.33;7.83;;;8.30;99.90;;;;;;5012619;28;20535;-78
2023/03/16 10:24:01;;;;;;;11.00;8.00;;;8.30;99.90;;;;;;5011888;28;20982;-74
2023/03/16 10:26:38;;;;;;;12.33;8.30;;;8.20;99.90;;;;;;5012144;28;20493;-77
2023/03/16 10:29:06;;;;;;;13.90;8.73;;;8.10;99.90;;;;;;5012075;28;20563;-75
2023/03/16 10:31:36;;;;;;;14.23;8.53;;;8.00;99.90;;;;;;5012462;28;20454;-74
2023/03/16 10:34:06;;;;;;;17.37;9.30;;;7.90;99.90;;;;;;5012134;28;20497;-75
2023/03/16 10:36:36;;;;;;;15.30;9.50;;;7.80;99.90;;;;;;5011861;28;20535;-74
2023/03/16 10:39:05;;;;;;;11.87;8.00;;;8.00;99.90;;;;;;5012934;28;20453;-75
2023/03/16 10:41:35;;;;;;;11.63;7.90;;;8.00;99.90;;;;;;5012628;28;20812;-75
2023/03/16 10:44:07;;;;;;;11.07;8.47;;;7.90;99.90;;;;;;5012038;28;20488;-74
2023/03/16 10:46:38;;;;;;;10.03;7.13;;;7.90;99.90;;;;;;5017342;28;20498;-75
2023/03/16 10:49:05;;;;;;;13.30;7.90;;;7.80;99.90;;;;;;5012557;28;20460;-74
2023/03/16 10:51:34;;;;;;;11.80;7.87;;;7.60;99.90;;;;;;5012596;28;20511;-74
2023/03/16 10:54:09;;;;;;;11.87;7.70;;;7.60;99.90;;;;;;5012165;28;20975;-74
2023/03/16 10:56:39;;;;;;;9.00;7.47;;;7.60;99.90;;;;;;5012329;28;20451;-74
2023/03/16 10:59:15;;;;;;;9.97;7.40;;;7.70;99.90;;;;;;5012273;28;20476;-77
2023/03/16 11:01:45;;;;;;;11.20;7.70;;;7.80;99.90;;;;;;5008548;28;20460;-75
2023/03/16 11:04:15;;;;;;;14.73;8.60;;;8.00;99.90;;;;;;5011816;28;20473;-74
2023/03/16 11:06:49;;;;;;;13.60;8.00;;;8.40;99.90;;;;;;5012029;28;20491;-75
2023/03/16 11:09:21;;;;;;;15.70;8.13;;;8.70;99.90;;;;;;5012553;28;20836;-74
2023/03/16 11:11:50;;;;;;;13.20;7.93;;;8.90;99.90;;;;;;5011501;28;20462;-77
2023/03/16 11:14:21;;;;;;;12.83;7.13;;;9.30;99.90;;;;;;5012115;28;20485;-75
2023/03/16 11:16:53;;;;;;;8.80;7.00;;;9.20;99.90;;;;;;5011640;28;20460;-75
2023/03/16 11:19:24;;;;;;;10.90;8.00;;;9.00;99.90;;;;;;5013391;28;20464;-75
2023/03/16 11:21:56;;;;;;;9.10;6.57;;;8.90;99.90;;;;;;5011662;28;20449;-75
2023/03/16 11:24:27;;;;;;;10.17;8.07;;;9.00;99.90;;;;;;5011465;28;20474;-75
2023/03/16 11:26:58;;;;;;;8.23;6.73;;;9.30;99.90;;;;;;5011658;28;20493;-75
2023/03/16 11:29:32;;;;;;;8.67;7.00;;;9.60;99.90;;;;;;5011473;28;20459;-75
2023/03/16 11:32:05;;;;;;;11.77;7.30;;;9.60;99.90;;;;;;5003818;28;20820;-77
2023/03/16 11:34:33;;;;;;;8.60;7.17;;;9.70;99.90;;;;;;5010810;28;20467;-75
2023/03/16 11:37:11;;;;;;;10.73;6.77;;;9.70;99.90;;;;;;5011892;28;20446;-75
2023/03/16 11:39:48;;;;;;;9.77;6.73;;;9.40;99.90;;;;;;5011481;28;20484;-75
2023/03/16 11:42:27;;;;;;;9.70;6.77;;;9.10;99.90;;;;;;5011872;28;20834;-75
2023/03/16 11:45:00;;;;;;;8.80;6.67;;;9.30;99.90;;;;;;5014180;28;20479;-75
2023/03/16 11:48:02;;;;;;;9.73;6.73;;;9.50;99.90;;;;;;5019499;28;20579;-75
2023/03/16 11:50:36;;;;;;;11.47;6.50;;;9.60;99.90;;;;;;5004569;28;20511;-75
2023/03/16 11:53:13;;;;;;;10.70;7.07;;;9.50;99.90;;;;;;5014715;28;20475;-75
2023/03/16 11:55:44;;;;;;;7.93;6.53;;;9.80;99.90;;;;;;5014756;28;20542;-75
2023/03/16 11:58:24;;;;;;;8.07;5.93;;;10.10;99.90;;;;;;5015085;28;20458;-75
2023/03/16 12:00:58;;;;;;;11.77;7.03;;;10.20;99.90;;;;;;5014635;28;20452;-75
2023/03/16 12:03:44;;;;;;;11.63;7.10;;;10.10;99.90;;;;;;5010785;28;21009;-75
2023/03/16 12:06:23;;;;;;;9.47;6.97;;;9.80;99.90;;;;;;5008632;28;20544;-75
2023/03/16 12:09:14;;;;;;;9.33;6.90;;;9.80;99.90;;;;;;5014927;28;20467;-74
2023/03/16 12:11:50;;;;;;;11.23;6.57;;;10.00;99.90;;;;;;5014641;28;20470;-74
2023/03/16 12:14:24;;;;;;;7.37;5.50;;;10.40;99.90;;;;;;5014979;28;20897;-75
2023/03/16 12:16:56;;;;;;;7.33;6.17;;;10.40;99.90;;;;;;5014647;28;20936;-74
2023/03/16 12:19:27;;;;;;;6.93;5.83;;;10.20;99.90;;;;;;5016832;28;20464;-74
2023/03/16 12:22:03;;;;;;;7.30;6.07;;;10.20;99.90;;;;;;5014292;28;20511;-75
2023/03/16 12:24:35;;;;;;;9.23;6.17;;;10.10;99.90;;;;;;5014566;28;20560;-75
2023/03/16 12:27:02;;;;;;;9.10;6.83;;;9.70;99.90;;;;;;5014442;28;20862;-76
2023/03/16 12:29:40;;;;;;;8.57;7.13;;;9.70;99.90;;;;;;5014410;28;20463;-74
2023/03/16 12:32:13;;;;;;;10.10;6.27;;;9.90;99.90;;;;;;5007212;28;20455;-74
2023/03/16 12:34:45;;;;;;;10.97;7.03;;;10.00;99.90;;;;;;5013929;28;20464;-74
2023/03/16 12:37:33;;;;;;;9.07;6.23;;;10.10;99.90;;;;;;5014338;28;20481;-74
2023/03/16 12:40:08;;;;;;;10.10;7.23;;;9.90;99.90;;;;;;5006433;28;20502;-75
2023/03/16 12:43:00;;;;;;;10.03;7.37;;;9.80;99.90;;;;;;5013943;28;20868;-74
2023/03/16 12:45:36;;;;;;;10.70;7.10;;;9.60;99.90;;;;;;5018812;28;20539;-74
2023/03/16 12:48:17;;;;;;;10.63;7.30;;;9.50;99.90;;;;;;5006642;28;20492;-74
2023/03/16 12:50:53;;;;;;;12.83;6.97;;;9.60;99.90;;;;;;5013981;28;20546;-74
2023/03/16 12:53:29;;;;;;;10.70;7.67;;;9.70;99.90;;;;;;5014508;28;20463;-75